Time;durP1;ratioP1;P1;durP2;ratioP2;P2;SDS_P1;SDS_P2;PMS_P1;PMS_P2;Temp;Humidity;BMP_temperature;BMP_pressure;BME280_temperature;BME280_humidity;BME280_pressure;Samples;Min_cycle;Max_cycle;Signal;HPM_P1;HPM_P2
2023/10/06 00:01:42;;;;;;;0.10;0.10;;;11.70;99.90;;;;;;5016587;28;20033;-91
2023/10/06 00:04:13;;;;;;;0.20;0.20;;;11.60;99.90;;;;;;5022633;28;20029;-90
2023/10/06 00:06:42;;;;;;;0.10;0.10;;;11.70;99.90;;;;;;5023962;28;20036;-88
2023/10/06 00:09:30;;;;;;;0.05;0.05;;;11.60;99.90;;;;;;5013696;28;20041;-90
2023/10/06 00:11:56;;;;;;;0.10;0.10;;;11.50;99.90;;;;;;5021996;28;20033;-88
2023/10/06 00:14:40;;;;;;;0.10;0.10;;;11.50;99.90;;;;;;5015755;28;20045;-89
2023/10/06 00:17:09;;;;;;;0.10;0.10;;;11.60;99.90;;;;;;5015770;28;20408;-87
2023/10/06 00:19:37;;;;;;;0.30;0.30;;;11.50;99.90;;;;;;5009497;28;20729;-90
2023/10/06 00:24:31;;;;;;;0.10;0.10;;;11.30;99.90;;;;;;5014563;28;20497;-90
2023/10/06 00:26:57;;;;;;;0.10;0.10;;;11.40;99.90;;;;;;5021682;28;20280;-89
2023/10/06 00:29:23;;;;;;;0.10;0.10;;;11.30;99.90;;;;;;5021153;28;20021;-90
2023/10/06 00:31:53;;;;;;;0.10;0.10;;;11.20;99.90;;;;;;5021240;28;20818;-89
2023/10/06 00:34:22;;;;;;;0.10;0.10;;;11.30;99.90;;;;;;5020432;28;20527;-90
2023/10/06 00:36:51;;;;;;;0.10;0.10;;;11.10;99.90;;;;;;5019382;28;20025;-89
2023/10/06 00:39:23;;;;;;;0.10;0.10;;;11.20;99.90;;;;;;5012243;28;20030;-89
2023/10/06 00:41:55;;;;;;;0.63;0.63;;;11.20;99.90;;;;;;5017417;28;20032;-88
2023/10/06 00:44:24;;;;;;;0.10;0.10;;;11.00;99.90;;;;;;5019494;28;20021;-89
2023/10/06 00:46:50;;;;;;;0.10;0.10;;;11.00;99.90;;;;;;5016405;28;20030;-88
2023/10/06 00:49:18;;;;;;;0.10;0.10;;;10.90;99.90;;;;;;5017511;28;20496;-91
2023/10/06 00:51:45;;;;;;;0.10;0.10;;;11.10;99.90;;;;;;5012853;28;20072;-88
2023/10/06 00:54:11;;;;;;;0.10;0.10;;;11.00;99.90;;;;;;5015486;28;20120;-91
2023/10/06 00:56:38;;;;;;;0.00;0.00;;;11.00;99.90;;;;;;5011830;28;20435;-89
2023/10/06 00:59:05;;;;;;;0.10;0.10;;;10.90;99.90;;;;;;5026130;28;20043;-88
2023/10/06 01:01:33;;;;;;;0.10;0.10;;;10.80;99.90;;;;;;5017972;28;20582;-90
2023/10/06 01:04:11;;;;;;;0.10;0.10;;;10.70;99.90;;;;;;5025909;28;20021;-90
2023/10/06 01:06:39;;;;;;;0.10;0.10;;;10.80;99.90;;;;;;5022540;28;20025;-89
2023/10/06 01:09:15;;;;;;;0.10;0.10;;;10.70;99.90;;;;;;5025592;28;20508;-90
2023/10/06 01:11:50;;;;;;;0.10;0.10;;;10.60;99.90;;;;;;5017374;28;20029;-89
2023/10/06 01:14:21;;;;;;;0.10;0.10;;;10.70;99.90;;;;;;5012316;28;20030;-90
2023/10/06 01:16:49;;;;;;;0.10;0.10;;;10.70;99.90;;;;;;5023487;28;20025;-90
2023/10/06 01:19:27;;;;;;;0.10;0.10;;;10.60;99.90;;;;;;5020430;28;20030;-89
2023/10/06 01:21:55;;;;;;;0.10;0.10;;;10.50;99.90;;;;;;5018248;28;20056;-92
2023/10/06 01:24:25;;;;;;;0.10;0.10;;;10.50;99.90;;;;;;5022023;28;20864;-90
2023/10/06 01:26:53;;;;;;;0.10;0.10;;;10.60;99.90;;;;;;5024325;28;20061;-88
2023/10/06 01:29:23;;;;;;;0.10;0.10;;;10.50;99.90;;;;;;5016709;28;20032;-89
2023/10/06 01:31:51;;;;;;;0.10;0.10;;;10.60;99.90;;;;;;5024256;28;20025;-88
2023/10/06 01:34:18;;;;;;;0.10;0.10;;;10.50;99.90;;;;;;5018200;28;20029;-88
2023/10/06 01:36:45;;;;;;;0.10;0.10;;;10.50;99.90;;;;;;5021772;28;20124;-89
2023/10/06 01:39:18;;;;;;;0.10;0.10;;;10.60;99.90;;;;;;5033538;28;20412;-90
2023/10/06 01:41:47;;;;;;;0.10;0.10;;;10.40;99.90;;;;;;5017897;28;20030;-87
2023/10/06 01:44:17;;;;;;;0.55;0.55;;;10.40;99.90;;;;;;5020619;28;20029;-89
2023/10/06 01:46:52;;;;;;;0.10;0.10;;;10.30;99.90;;;;;;5015783;28;20759;-88
2023/10/06 01:49:21;;;;;;;0.10;0.10;;;10.20;99.90;;;;;;5017130;28;20036;-90
2023/10/06 01:51:50;;;;;;;0.10;0.10;;;10.30;99.90;;;;;;5017815;28;20089;-89
2023/10/06 01:54:17;;;;;;;0.10;0.10;;;10.30;99.90;;;;;;5016886;28;20025;-89
2023/10/06 01:56:44;;;;;;;0.10;0.10;;;10.20;99.90;;;;;;5024723;28;20064;-90
2023/10/06 01:59:10;;;;;;;0.20;0.20;;;10.10;99.90;;;;;;5021711;28;20025;-89
2023/10/06 02:01:39;;;;;;;0.10;0.10;;;10.20;99.90;;;;;;5010006;28;20137;-90
2023/10/06 02:04:10;;;;;;;0.10;0.10;;;10.20;99.90;;;;;;5018427;28;20083;-90
2023/10/06 02:06:38;;;;;;;0.10;0.10;;;10.20;99.90;;;;;;5022584;28;20028;-91
2023/10/06 02:09:20;;;;;;;0.10;0.10;;;10.20;99.90;;;;;;5020644;28;20143;-87
2023/10/06 02:11:51;;;;;;;0.10;0.10;;;10.20;99.90;;;;;;5018271;28;20041;-91
2023/10/06 02:14:17;;;;;;;0.10;0.10;;;10.10;99.90;;;;;;5017949;28;20080;-88
2023/10/06 02:16:48;;;;;;;0.10;0.10;;;10.10;99.90;;;;;;5018041;28;20029;-89
2023/10/06 02:19:17;;;;;;;0.20;0.20;;;10.10;99.90;;;;;;5014212;28;20026;-88
2023/10/06 02:21:48;;;;;;;0.10;0.10;;;10.00;99.90;;;;;;5017265;28;20025;-89
2023/10/06 02:24:18;;;;;;;0.10;0.10;;;10.00;99.90;;;;;;5023627;28;20571;-89
2023/10/06 02:26:50;;;;;;;0.10;0.10;;;10.10;99.90;;;;;;5024100;28;20037;-90
2023/10/06 02:29:26;;;;;;;0.10;0.10;;;10.10;99.90;;;;;;5021509;28;20108;-89
2023/10/06 02:34:48;;;;;;;0.10;0.10;;;10.00;99.90;;;;;;5021612;28;20052;-88
2023/10/06 02:37:18;;;;;;;0.10;0.10;;;9.90;99.90;;;;;;5028275;28;20714;-88
2023/10/06 02:39:44;;;;;;;0.10;0.10;;;9.90;99.90;;;;;;5011570;28;20260;-88
2023/10/06 02:42:13;;;;;;;0.10;0.10;;;9.90;99.90;;;;;;5011500;28;20038;-87
2023/10/06 02:44:41;;;;;;;0.10;0.10;;;9.90;99.90;;;;;;5018122;28;20026;-87
2023/10/06 02:47:09;;;;;;;0.10;0.10;;;9.80;99.90;;;;;;5016220;28;20112;-88
2023/10/06 02:49:40;;;;;;;0.10;0.10;;;9.80;99.90;;;;;;5018335;28;20030;-88
2023/10/06 02:52:16;;;;;;;0.10;0.10;;;9.70;99.90;;;;;;5016197;28;20018;-88
2023/10/06 02:54:46;;;;;;;0.10;0.10;;;9.70;99.90;;;;;;5015803;28;20169;-88
2023/10/06 02:57:12;;;;;;;0.10;0.10;;;9.70;99.90;;;;;;5014796;28;20108;-88
2023/10/06 02:59:37;;;;;;;0.10;0.10;;;9.70;99.90;;;;;;5021265;28;20027;-88
2023/10/06 03:02:15;;;;;;;0.10;0.10;;;9.60;99.90;;;;;;5024659;28;20034;-88
2023/10/06 03:04:43;;;;;;;0.35;0.35;;;9.60;99.90;;;;;;5016845;28;20025;-92
2023/10/06 03:07:15;;;;;;;0.10;0.10;;;9.60;99.90;;;;;;5023813;28;20107;-88
2023/10/06 03:09:45;;;;;;;0.10;0.10;;;9.50;99.90;;;;;;5021227;28;20029;-92
2023/10/06 03:12:15;;;;;;;0.10;0.10;;;9.50;99.90;;;;;;5015010;28;20045;-90
2023/10/06 03:14:41;;;;;;;0.10;0.10;;;9.50;99.90;;;;;;5012018;28;20037;-92
2023/10/06 03:17:08;;;;;;;0.10;0.10;;;9.40;99.90;;;;;;5015609;28;20034;-91
2023/10/06 03:19:40;;;;;;;0.10;0.10;;;9.40;99.90;;;;;;5016736;28;20040;-87
2023/10/06 03:22:09;;;;;;;0.10;0.10;;;9.40;99.90;;;;;;5022916;28;20064;-91
2023/10/06 03:24:43;;;;;;;0.10;0.10;;;9.30;99.90;;;;;;5023097;28;20146;-89
2023/10/06 03:27:14;;;;;;;0.10;0.10;;;9.20;99.90;;;;;;5014953;28;20131;-88
2023/10/06 03:29:51;;;;;;;0.10;0.10;;;9.20;99.90;;;;;;5021596;28;20026;-89
2023/10/06 03:32:32;;;;;;;0.10;0.10;;;9.20;99.90;;;;;;5015589;28;20098;-89
2023/10/06 03:35:06;;;;;;;0.10;0.10;;;9.30;99.90;;;;;;5017459;28;20033;-86
2023/10/06 03:37:36;;;;;;;0.10;0.10;;;9.20;99.90;;;;;;5021758;28;20934;-88
2023/10/06 03:40:20;;;;;;;0.57;0.57;;;9.10;99.90;;;;;;5020864;28;20044;-89
2023/10/06 03:42:47;;;;;;;0.10;0.10;;;9.10;99.90;;;;;;5023025;28;20022;-90
2023/10/06 03:45:27;;;;;;;;;;;9.00;99.90;;;;;;5022943;28;20033;-90
2023/10/06 03:47:53;;;;;;;0.10;0.10;;;8.90;99.90;;;;;;5018246;28;19921;-91
2023/10/06 03:50:20;;;;;;;0.10;0.10;;;9.00;99.90;;;;;;5019835;28;20120;-88
2023/10/06 03:52:49;;;;;;;0.70;0.70;;;8.90;99.90;;;;;;5013206;28;20033;-91
2023/10/06 03:55:14;;;;;;;0.10;0.10;;;8.90;99.90;;;;;;5018013;28;20044;-87
2023/10/06 03:57:40;;;;;;;0.10;0.10;;;8.80;99.90;;;;;;5022115;28;20030;-88
2023/10/06 04:00:08;;;;;;;0.10;0.10;;;8.80;99.90;;;;;;5023649;28;20029;-91
2023/10/06 04:02:38;;;;;;;0.57;0.57;;;8.80;99.90;;;;;;5014089;28;20066;-90
2023/10/06 04:05:07;;;;;;;0.10;0.10;;;8.80;99.90;;;;;;5023598;28;20742;-88
2023/10/06 04:07:33;;;;;;;0.10;0.10;;;8.80;99.90;;;;;;5021343;28;20029;-91
2023/10/06 04:10:03;;;;;;;0.10;0.10;;;8.70;99.90;;;;;;5024104;28;20035;-88
2023/10/06 04:12:29;;;;;;;0.10;0.10;;;8.70;99.90;;;;;;5023664;28;20026;-88
2023/10/06 04:14:54;;;;;;;0.10;0.10;;;8.60;99.90;;;;;;5017162;28;20037;-90
2023/10/06 04:17:23;;;;;;;0.10;0.10;;;8.60;99.90;;;;;;5020264;28;20099;-90
2023/10/06 04:19:48;;;;;;;0.10;0.10;;;8.70;99.90;;;;;;5026882;28;20030;-88
2023/10/06 04:22:14;;;;;;;0.10;0.10;;;8.60;99.90;;;;;;5027210;28;20075;-88
2023/10/06 04:24:40;;;;;;;0.10;0.10;;;8.70;99.90;;;;;;5026103;28;20064;-90
2023/10/06 04:27:07;;;;;;;0.10;0.10;;;8.60;99.90;;;;;;5019747;28;20059;-89
2023/10/06 04:29:35;;;;;;;0.10;0.10;;;8.60;99.90;;;;;;5026567;28;20084;-88
2023/10/06 04:32:01;;;;;;;0.10;0.10;;;8.60;99.90;;;;;;5023901;28;20443;-90
2023/10/06 04:34:33;;;;;;;0.10;0.10;;;8.60;99.90;;;;;;5019004;28;20027;-89
2023/10/06 04:37:00;;;;;;;0.10;0.10;;;8.50;99.90;;;;;;5017252;28;20025;-88
2023/10/06 04:39:26;;;;;;;0.10;0.10;;;8.50;99.90;;;;;;5025742;28;20026;-88
2023/10/06 04:41:55;;;;;;;0.10;0.10;;;8.40;99.90;;;;;;5028225;28;20052;-91
2023/10/06 04:44:21;;;;;;;0.10;0.10;;;8.50;99.90;;;;;;5020821;28;20026;-88
2023/10/06 04:46:47;;;;;;;0.10;0.10;;;8.50;99.90;;;;;;5010535;28;20034;-86
2023/10/06 04:49:12;;;;;;;0.10;0.10;;;8.50;99.90;;;;;;5022007;28;20061;-88
2023/10/06 04:51:38;;;;;;;1.45;1.00;;;8.50;99.90;;;;;;5017957;28;20029;-87
2023/10/06 04:54:07;;;;;;;0.08;0.08;;;8.50;99.60;;;;;;5025029;28;20564;-86
2023/10/06 04:56:33;;;;;;;0.10;0.10;;;8.50;99.60;;;;;;5010918;28;20040;-86
2023/10/06 04:58:59;;;;;;;0.10;0.10;;;8.40;99.80;;;;;;5011407;28;20037;-85
2023/10/06 05:01:29;;;;;;;0.10;0.10;;;8.40;99.60;;;;;;5024665;28;20025;-87
2023/10/06 05:03:55;;;;;;;0.10;0.10;;;8.40;99.60;;;;;;5025273;28;20479;-85
2023/10/06 05:06:21;;;;;;;0.10;0.10;;;8.30;99.50;;;;;;5024153;28;20033;-87
2023/10/06 05:08:47;;;;;;;0.10;0.10;;;8.30;99.50;;;;;;5024576;28;20021;-87
2023/10/06 05:11:17;;;;;;;0.10;0.10;;;8.30;99.60;;;;;;5022548;28;20038;-86
2023/10/06 05:13:43;;;;;;;0.10;0.10;;;8.30;99.20;;;;;;5023257;28;20852;-86
2023/10/06 05:16:11;;;;;;;0.10;0.10;;;8.30;99.10;;;;;;5024548;28;20117;-84
2023/10/06 05:18:38;;;;;;;0.10;0.10;;;8.20;99.30;;;;;;5020322;28;20065;-86
2023/10/06 05:21:06;;;;;;;0.10;0.10;;;8.20;99.40;;;;;;5024485;28;20021;-83
2023/10/06 05:23:34;;;;;;;0.10;0.10;;;8.20;99.20;;;;;;5024936;28;20041;-86
2023/10/06 05:26:07;;;;;;;0.10;0.10;;;8.20;99.30;;;;;;5019289;28;20158;-86
2023/10/06 05:28:36;;;;;;;0.08;0.08;;;8.10;99.20;;;;;;5025266;28;20120;-86
2023/10/06 05:31:02;;;;;;;0.10;0.10;;;8.10;99.30;;;;;;5024236;28;20112;-87
2023/10/06 05:33:28;;;;;;;0.10;0.10;;;8.00;99.60;;;;;;5022975;28;20702;-88
2023/10/06 05:35:54;;;;;;;0.63;0.63;;;7.90;99.70;;;;;;5024162;28;20489;-84
2023/10/06 05:38:20;;;;;;;0.10;0.10;;;7.90;99.70;;;;;;5024919;28;20330;-86
2023/10/06 05:40:48;;;;;;;0.10;0.10;;;7.90;99.60;;;;;;5024994;28;20033;-86
2023/10/06 05:43:16;;;;;;;0.10;0.10;;;7.90;99.50;;;;;;5024673;28;20025;-87
2023/10/06 05:45:45;;;;;;;0.10;0.10;;;7.90;99.70;;;;;;5024207;28;20656;-86
2023/10/06 05:48:12;;;;;;;0.10;0.10;;;8.00;99.40;;;;;;5024908;28;20029;-90
2023/10/06 05:50:40;;;;;;;0.10;0.10;;;8.00;99.10;;;;;;5024248;28;20031;-88
2023/10/06 05:53:12;;;;;;;0.10;0.10;;;8.00;98.90;;;;;;5018983;28;20720;-86
2023/10/06 05:55:41;;;;;;;0.10;0.10;;;8.00;98.80;;;;;;5017718;28;20045;-87
2023/10/06 05:58:09;;;;;;;0.10;0.10;;;8.00;98.70;;;;;;5023855;28;20025;-87
2023/10/06 06:00:46;;;;;;;0.10;0.10;;;8.00;98.70;;;;;;5023686;28;20029;-85
2023/10/06 06:03:13;;;;;;;0.10;0.10;;;8.00;98.70;;;;;;5022630;28;20026;-84
2023/10/06 06:05:42;;;;;;;0.10;0.10;;;8.00;98.60;;;;;;5023479;28;20029;-73
2023/10/06 06:08:10;;;;;;;0.10;0.10;;;8.00;98.50;;;;;;5021587;28;20072;-73
2023/10/06 06:10:36;;;;;;;0.10;0.10;;;8.20;98.10;;;;;;5023685;28;20056;-73
2023/10/06 06:13:02;;;;;;;0.10;0.10;;;8.40;97.60;;;;;;5023773;28;20125;-74
2023/10/06 06:15:29;;;;;;;0.10;0.10;;;8.50;97.20;;;;;;5022359;28;20591;-75
2023/10/06 06:17:54;;;;;;;0.10;0.10;;;8.70;96.50;;;;;;5023673;28;20029;-79
2023/10/06 06:20:24;;;;;;;0.10;0.10;;;8.80;96.20;;;;;;5010089;28;20277;-73
2023/10/06 06:22:59;;;;;;;0.10;0.10;;;8.80;96.20;;;;;;5023439;28;20029;-80
2023/10/06 06:25:29;;;;;;;0.10;0.10;;;8.90;95.90;;;;;;5023318;28;20045;-83
2023/10/06 06:27:58;;;;;;;0.10;0.10;;;9.30;95.40;;;;;;5018930;28;20040;-84
2023/10/06 06:30:24;;;;;;;0.05;0.05;;;9.80;93.90;;;;;;5015944;28;20029;-85
2023/10/06 06:32:50;;;;;;;0.10;0.10;;;10.10;93.00;;;;;;5020526;28;20032;-85
2023/10/06 06:35:19;;;;;;;0.00;0.00;;;10.30;92.60;;;;;;5023181;28;20819;-83
2023/10/06 06:37:52;;;;;;;0.10;0.10;;;10.50;91.90;;;;;;5023470;28;20047;-84
2023/10/06 06:40:21;;;;;;;0.10;0.10;;;10.80;91.00;;;;;;5022050;28;20034;-84
2023/10/06 06:42:49;;;;;;;0.10;0.10;;;11.10;90.00;;;;;;5023365;28;20026;-85
2023/10/06 06:45:15;;;;;;;0.05;0.05;;;11.30;88.80;;;;;;5027787;28;20108;-85
2023/10/06 06:47:42;;;;;;;0.03;0.03;;;11.60;87.50;;;;;;5024672;28;20441;-84
2023/10/06 06:50:09;;;;;;;0.00;0.00;;;11.90;85.70;;;;;;5022956;28;20132;-84
2023/10/06 06:52:36;;;;;;;0.20;0.20;;;12.10;85.10;;;;;;5023496;28;20045;-84
2023/10/06 06:55:02;;;;;;;0.00;0.00;;;12.40;83.50;;;;;;5023230;28;20041;-84
2023/10/06 06:57:27;;;;;;;0.00;0.00;;;12.50;82.50;;;;;;5021200;28;20035;-83
2023/10/06 06:59:53;;;;;;;0.00;0.00;;;12.60;82.10;;;;;;5023144;28;20029;-84
2023/10/06 07:02:20;;;;;;;0.00;0.00;;;12.90;80.50;;;;;;5012261;28;20033;-84
2023/10/06 07:04:45;;;;;;;;;;;12.90;80.10;;;;;;5021751;28;20493;-84
2023/10/06 07:07:11;;;;;;;0.00;0.00;;;13.30;80.30;;;;;;5021429;28;19916;-84
2023/10/06 07:09:37;;;;;;;5.43;2.80;;;13.80;77.70;;;;;;5013158;28;20101;-84
2023/10/06 07:12:03;;;;;;;0.00;0.00;;;13.60;77.40;;;;;;5014820;28;20518;-85
2023/10/06 07:14:29;;;;;;;0.00;0.00;;;13.70;76.90;;;;;;5021977;28;20893;-85
2023/10/06 07:16:56;;;;;;;0.00;0.00;;;13.90;76.50;;;;;;5013446;28;20033;-84
2023/10/06 07:19:23;;;;;;;0.00;0.00;;;13.80;75.40;;;;;;5022415;28;20037;-84
2023/10/06 07:21:50;;;;;;;0.00;0.00;;;13.80;75.80;;;;;;5023030;28;20030;-84
2023/10/06 07:24:15;;;;;;;0.00;0.00;;;14.50;74.70;;;;;;5021749;28;20053;-84
2023/10/06 07:26:44;;;;;;;0.00;0.00;;;14.80;73.40;;;;;;5017122;28;20029;-84
2023/10/06 07:29:10;;;;;;;0.00;0.00;;;14.60;72.50;;;;;;5017705;28;20018;-83
2023/10/06 07:31:36;;;;;;;0.57;0.57;;;15.00;71.80;;;;;;5019867;28;20489;-85
2023/10/06 07:34:05;;;;;;;0.00;0.00;;;15.60;70.70;;;;;;5021077;28;20061;-85
2023/10/06 07:36:35;;;;;;;0.85;0.85;;;15.60;68.80;;;;;;5027086;28;20104;-85
2023/10/06 07:39:03;;;;;;;0.00;0.00;;;15.90;68.30;;;;;;5028319;28;20018;-85
2023/10/06 07:41:29;;;;;;;6.45;2.38;;;15.80;67.30;;;;;;5022752;28;20033;-85
2023/10/06 07:43:56;;;;;;;0.00;0.00;;;16.10;67.10;;;;;;5022754;28;20029;-85
2023/10/06 07:46:22;;;;;;;0.00;0.00;;;16.10;66.80;;;;;;5022805;28;20077;-85
2023/10/06 07:48:50;;;;;;;0.00;0.00;;;16.10;67.20;;;;;;5027215;28;20065;-86
2023/10/06 07:51:16;;;;;;;0.00;0.00;;;16.10;67.50;;;;;;5016475;28;20164;-84
2023/10/06 07:53:44;;;;;;;0.00;0.00;;;16.30;66.00;;;;;;5022527;28;20030;-84
2023/10/06 07:56:11;;;;;;;0.00;0.00;;;16.10;67.50;;;;;;5015755;28;20037;-85
2023/10/06 07:58:41;;;;;;;0.00;0.00;;;16.40;65.70;;;;;;5026446;28;20029;-84
2023/10/06 08:01:11;;;;;;;0.00;0.00;;;16.60;65.90;;;;;;5018250;28;20633;-84
2023/10/06 08:03:38;;;;;;;0.00;0.00;;;16.60;63.80;;;;;;5019735;28;20023;-84
2023/10/06 08:06:08;;;;;;;0.00;0.00;;;16.60;65.10;;;;;;5025951;28;20029;-85
2023/10/06 08:08:35;;;;;;;0.00;0.00;;;16.70;63.50;;;;;;5026578;28;20025;-84
2023/10/06 08:11:02;;;;;;;;;;;16.70;63.50;;;;;;5026418;28;20133;-85
2023/10/06 08:13:30;;;;;;;0.00;0.00;;;16.80;63.90;;;;;;5025891;28;19935;-85
2023/10/06 08:16:00;;;;;;;0.00;0.00;;;17.00;64.30;;;;;;5025530;28;20447;-84
2023/10/06 08:18:29;;;;;;;0.65;0.65;;;17.80;62.90;;;;;;5025880;28;20036;-85
2023/10/06 08:20:56;;;;;;;0.00;0.00;;;18.10;62.70;;;;;;5025592;28;20071;-84
2023/10/06 08:23:21;;;;;;;0.00;0.00;;;17.90;61.30;;;;;;5025846;28;20343;-84
2023/10/06 08:25:49;;;;;;;0.00;0.00;;;17.80;62.20;;;;;;5024415;28;20527;-85
2023/10/06 08:28:15;;;;;;;0.00;0.00;;;17.90;61.30;;;;;;5026086;28;20033;-85
2023/10/06 08:30:40;;;;;;;0.00;0.00;;;18.20;60.30;;;;;;5020180;28;20389;-85
2023/10/06 08:33:09;;;;;;;0.00;0.00;;;18.50;61.70;;;;;;5022965;28;20029;-85
2023/10/06 08:35:40;;;;;;;0.00;0.00;;;18.60;60.90;;;;;;5008827;28;20393;-85
2023/10/06 08:38:07;;;;;;;0.00;0.00;;;19.40;58.80;;;;;;5022863;28;20061;-85
2023/10/06 08:40:36;;;;;;;0.00;0.00;;;19.60;59.70;;;;;;5017081;28;20021;-85
2023/10/06 08:43:06;;;;;;;0.00;0.00;;;19.40;58.00;;;;;;5023068;28;20044;-84
2023/10/06 08:45:32;;;;;;;0.00;0.00;;;19.20;58.50;;;;;;5024692;28;20025;-84
2023/10/06 08:48:01;;;;;;;0.00;0.00;;;19.00;58.10;;;;;;5024289;28;20108;-84
2023/10/06 08:50:27;;;;;;;0.00;0.00;;;19.40;58.40;;;;;;5023439;28;20759;-84
2023/10/06 08:52:55;;;;;;;0.05;0.05;;;19.10;57.60;;;;;;5024677;28;20057;-85
2023/10/06 08:55:23;;;;;;;0.00;0.00;;;19.60;57.20;;;;;;5023932;28;20041;-85
2023/10/06 08:57:50;;;;;;;0.65;0.65;;;19.90;57.40;;;;;;5024650;28;20068;-85
2023/10/06 09:00:31;;;;;;;0.00;0.00;;;19.90;57.20;;;;;;5024439;28;20032;-84
2023/10/06 09:03:03;;;;;;;0.00;0.00;;;20.30;58.10;;;;;;5024568;28;20036;-85
2023/10/06 09:05:30;;;;;;;0.00;0.00;;;20.30;56.40;;;;;;5024033;28;20033;-85
2023/10/06 09:08:07;;;;;;;0.00;0.00;;;20.50;56.90;;;;;;5023722;28;20060;-85
2023/10/06 09:10:41;;;;;;;0.00;0.00;;;21.00;55.80;;;;;;5017376;28;20033;-84
2023/10/06 09:13:17;;;;;;;0.00;0.00;;;21.00;54.40;;;;;;5019103;28;20029;-84
2023/10/06 09:15:54;;;;;;;0.00;0.00;;;21.40;54.70;;;;;;5024004;28;20041;-84
2023/10/06 09:18:27;;;;;;;0.00;0.00;;;21.70;55.40;;;;;;5024111;28;20022;-84
2023/10/06 09:20:57;;;;;;;0.00;0.00;;;21.80;54.60;;;;;;5023944;28;20461;-84
2023/10/06 09:23:34;;;;;;;0.00;0.00;;;21.60;53.70;;;;;;5023498;28;20030;-84
2023/10/06 09:26:02;;;;;;;0.00;0.00;;;21.20;54.20;;;;;;4967311;28;1433275;-85
2023/10/06 09:28:28;;;;;;;0.00;0.00;;;21.30;54.00;;;;;;5024718;28;20021;-84
2023/10/06 09:31:00;;;;;;;0.00;0.00;;;21.30;54.20;;;;;;5018451;28;20034;-84
2023/10/06 09:33:27;;;;;;;0.00;0.00;;;21.00;53.70;;;;;;5016086;28;20146;-85
2023/10/06 09:36:06;;;;;;;0.00;0.00;;;21.30;53.40;;;;;;5010315;28;20034;-84
2023/10/06 09:38:32;;;;;;;0.00;0.00;;;20.90;54.10;;;;;;5015027;28;20053;-85
2023/10/06 09:40:58;;;;;;;0.00;0.00;;;20.30;54.50;;;;;;5017171;28;20029;-85
2023/10/06 09:43:25;;;;;;;0.00;0.00;;;20.10;55.80;;;;;;5013967;28;20041;-84
2023/10/06 09:45:51;;;;;;;0.00;0.00;;;20.20;57.30;;;;;;5010203;28;20025;-85
2023/10/06 09:48:22;;;;;;;0.00;0.00;;;19.80;56.20;;;;;;5015653;28;20159;-85
2023/10/06 09:50:51;;;;;;;0.00;0.00;;;19.70;56.60;;;;;;5016676;28;20029;-85
2023/10/06 09:53:19;;;;;;;0.00;0.00;;;19.60;57.50;;;;;;5025363;28;20025;-84
2023/10/06 09:55:52;;;;;;;0.00;0.00;;;19.80;58.60;;;;;;5029849;28;20037;-85
2023/10/06 09:58:18;;;;;;;0.00;0.00;;;19.70;60.30;;;;;;5023171;28;20025;-85
2023/10/06 10:00:45;;;;;;;0.80;0.80;;;19.60;59.00;;;;;;5017416;28;20611;-85
2023/10/06 10:03:14;;;;;;;0.00;0.00;;;19.80;57.90;;;;;;5024752;28;20033;-84
2023/10/06 10:05:42;;;;;;;0.00;0.00;;;19.90;58.30;;;;;;5022123;28;20052;-85
2023/10/06 10:08:08;;;;;;;0.00;0.00;;;20.10;57.40;;;;;;5022887;28;20156;-85
2023/10/06 10:10:44;;;;;;;0.00;0.00;;;19.90;59.30;;;;;;5022669;28;20443;-85
2023/10/06 10:13:34;;;;;;;0.00;0.00;;;20.00;58.40;;;;;;5024002;28;20306;-85
2023/10/06 10:16:02;;;;;;;0.00;0.00;;;20.00;57.60;;;;;;5023512;28;20037;-84
2023/10/06 10:18:35;;;;;;;0.00;0.00;;;19.80;57.70;;;;;;5023557;28;20062;-85
2023/10/06 10:21:02;;;;;;;0.00;0.00;;;20.20;57.40;;;;;;5023228;28;20029;-85
2023/10/06 10:23:31;;;;;;;0.00;0.00;;;20.30;57.80;;;;;;5023664;28;20028;-86
2023/10/06 10:26:23;;;;;;;0.00;0.00;;;20.30;56.60;;;;;;5015771;28;20058;-86
2023/10/06 10:29:16;;;;;;;6.03;4.25;;;20.60;58.70;;;;;;5019256;28;20040;-85
2023/10/06 10:31:47;;;;;;;4.03;3.70;;;20.60;59.40;;;;;;5021886;28;20033;-85
2023/10/06 10:34:23;;;;;;;0.00;0.00;;;20.30;58.30;;;;;;5009980;28;20587;-86
2023/10/06 10:36:55;;;;;;;0.00;0.00;;;20.40;59.20;;;;;;5014243;28;20033;-86
2023/10/06 10:39:22;;;;;;;0.00;0.00;;;20.30;58.50;;;;;;5024124;28;20075;-85
2023/10/06 10:41:47;;;;;;;0.00;0.00;;;20.10;57.70;;;;;;5014786;28;20108;-84
2023/10/06 10:44:18;;;;;;;0.00;0.00;;;20.20;59.50;;;;;;5016862;28;20689;-86
2023/10/06 10:46:48;;;;;;;0.00;0.00;;;20.30;60.60;;;;;;5023673;28;20911;-85
2023/10/06 10:49:19;;;;;;;0.00;0.00;;;20.20;59.70;;;;;;5016291;28;20141;-85
2023/10/06 10:51:57;;;;;;;0.00;0.00;;;20.20;59.10;;;;;;5016509;28;20041;-86
2023/10/06 10:54:27;;;;;;;0.00;0.00;;;20.50;61.40;;;;;;5009933;28;20080;-84
2023/10/06 10:57:01;;;;;;;0.40;0.40;;;20.50;60.70;;;;;;5020496;28;20497;-85
2023/10/06 11:02:40;;;;;;;0.00;0.00;;;20.60;60.10;;;;;;5014346;28;20504;-85
2023/10/06 11:05:07;;;;;;;0.00;0.00;;;20.80;62.00;;;;;;5020764;28;20129;-85
2023/10/06 11:07:36;;;;;;;0.00;0.00;;;20.70;61.20;;;;;;5021512;28;20515;-84
2023/10/06 11:10:03;;;;;;;0.00;0.00;;;20.60;61.00;;;;;;5018713;28;20033;-85
2023/10/06 11:12:30;;;;;;;0.00;0.00;;;20.60;59.40;;;;;;5019364;28;20028;-85
2023/10/06 11:15:13;;;;;;;0.00;0.00;;;20.50;60.40;;;;;;5016876;28;20025;-84
2023/10/06 11:17:43;;;;;;;0.00;0.00;;;20.60;60.70;;;;;;5023468;28;20036;-85
2023/10/06 11:20:15;;;;;;;0.00;0.00;;;20.60;60.50;;;;;;5018260;28;20053;-85
2023/10/06 11:22:55;;;;;;;0.00;0.00;;;20.60;61.10;;;;;;5023216;28;20022;-86
2023/10/06 11:25:27;;;;;;;0.00;0.00;;;20.70;61.50;;;;;;5018069;28;20053;-85
2023/10/06 11:28:02;;;;;;;0.00;0.00;;;20.60;60.70;;;;;;5023045;28;20025;-85
2023/10/06 11:30:29;;;;;;;0.00;0.00;;;20.50;61.30;;;;;;5014655;28;20045;-85
2023/10/06 11:32:56;;;;;;;;;;;20.40;60.50;;;;;;5014142;28;20083;-87
2023/10/06 11:35:22;;;;;;;0.00;0.00;;;20.30;61.70;;;;;;5016110;28;20860;-85
2023/10/06 11:37:48;;;;;;;0.40;0.40;;;20.40;61.90;;;;;;5015831;28;20029;-85
2023/10/06 11:40:15;;;;;;;0.00;0.00;;;20.30;60.80;;;;;;5022849;28;20029;-85
2023/10/06 11:42:41;;;;;;;0.00;0.00;;;20.20;59.90;;;;;;5016515;28;20772;-84
2023/10/06 11:45:27;;;;;;;0.00;0.00;;;20.30;58.00;;;;;;5022683;28;20373;-85
2023/10/06 11:47:54;;;;;;;0.00;0.00;;;20.30;57.50;;;;;;5022637;28;20123;-85
2023/10/06 11:50:28;;;;;;;0.00;0.00;;;20.20;57.90;;;;;;5012627;28;20088;-85
2023/10/06 11:52:55;;;;;;;0.00;0.00;;;20.30;57.30;;;;;;5012564;28;20029;-85
2023/10/06 11:55:31;;;;;;;0.00;0.00;;;20.30;56.30;;;;;;5014787;28;20123;-85
2023/10/06 11:58:01;;;;;;;0.00;0.00;;;20.40;57.90;;;;;;5016496;28;20026;-86
2023/10/06 12:00:40;;;;;;;0.15;0.15;;;20.20;57.10;;;;;;5016664;28;20686;-84
2023/10/06 12:03:07;;;;;;;0.00;0.00;;;20.30;57.30;;;;;;5011962;28;20504;-85
2023/10/06 12:05:33;;;;;;;0.00;0.00;;;20.30;58.20;;;;;;5017808;28;20096;-85
2023/10/06 12:08:08;;;;;;;4.38;1.67;;;20.30;54.90;;;;;;5014243;28;20564;-85
2023/10/06 12:10:50;;;;;;;0.00;0.00;;;20.30;55.20;;;;;;5009866;28;20792;-84
2023/10/06 12:13:16;;;;;;;0.00;0.00;;;20.30;54.50;;;;;;5021239;28;20040;-84
2023/10/06 12:15:44;;;;;;;0.00;0.00;;;20.30;53.30;;;;;;5013239;28;20034;-85
2023/10/06 12:18:11;;;;;;;0.00;0.00;;;20.40;54.30;;;;;;5022276;28;20124;-86
2023/10/06 12:20:37;;;;;;;0.00;0.00;;;20.60;54.00;;;;;;5016935;28;20544;-87
2023/10/06 12:23:02;;;;;;;0.00;0.00;;;20.70;52.40;;;;;;5025800;28;20030;-85
2023/10/06 12:25:29;;;;;;;0.00;0.00;;;20.60;50.40;;;;;;5023056;28;20359;-85
2023/10/06 12:27:56;;;;;;;0.00;0.00;;;20.60;50.10;;;;;;5023815;28;20021;-85
2023/10/06 12:30:24;;;;;;;0.00;0.00;;;20.40;52.30;;;;;;5018467;28;20518;-85
2023/10/06 12:32:50;;;;;;;0.00;0.00;;;20.30;53.80;;;;;;5022484;28;20321;-85
2023/10/06 12:35:18;;;;;;;0.00;0.00;;;20.50;54.00;;;;;;5019407;28;20557;-86
2023/10/06 12:37:46;;;;;;;0.30;0.30;;;20.60;54.40;;;;;;5026263;28;20099;-85
2023/10/06 12:40:14;;;;;;;0.00;0.00;;;20.30;53.90;;;;;;5017653;28;20029;-84
2023/10/06 12:42:42;;;;;;;0.00;0.00;;;20.50;54.60;;;;;;5021805;28;20022;-85
2023/10/06 12:45:12;;;;;;;0.00;0.00;;;20.50;54.80;;;;;;5025937;28;20104;-85
2023/10/06 12:47:39;;;;;;;0.00;0.00;;;20.50;55.00;;;;;;5026303;28;20026;-85
2023/10/06 12:50:06;;;;;;;0.00;0.00;;;20.30;56.70;;;;;;5024997;28;20536;-85
2023/10/06 12:52:37;;;;;;;0.00;0.00;;;20.20;54.60;;;;;;5019853;28;20108;-84
2023/10/06 12:55:10;;;;;;;0.00;0.00;;;20.30;56.20;;;;;;5024588;28;20041;-85
2023/10/06 12:57:40;;;;;;;0.00;0.00;;;20.20;54.90;;;;;;5021096;28;20070;-85
2023/10/06 13:00:10;;;;;;;0.00;0.00;;;20.70;56.50;;;;;;5016882;28;20109;-84
2023/10/06 13:02:36;;;;;;;0.00;0.00;;;20.80;55.00;;;;;;5016312;28;20105;-84
2023/10/06 13:05:14;;;;;;;0.00;0.00;;;20.60;53.70;;;;;;5019148;28;20037;-85
2023/10/06 13:07:46;;;;;;;0.00;0.00;;;20.50;55.20;;;;;;5023634;28;20103;-86
2023/10/06 13:10:13;;;;;;;0.00;0.00;;;20.70;52.80;;;;;;5013252;28;20069;-85